ホーチミン の空港の天気 - METARとTAF

タンソンニャット国際空港 (ホーチミン) ( VVTS / SGN ) - ベトナム ホーチミン市
飛行場実況気象(Metar)
観測時間08/16 13:30 ICT (08/16 06:30 UTC)
風向・風速西 9m/s
視程10km以上
天気現象
全天の8割程度の雲 雲底高度 520m
気温33℃
湿度63%
気圧1004hPa
METARVVTS 160630Z 28017KT 9999 BKN017 33/25 Q1004 NOSIG
過去の天気等 Google飛行場航空写真 Wunderground天気予報

過去48時間のMETAR

飛行場予報(TAF)
発表時間: 8/16 12:00 ICT (8/16 05:00 UTC)
予報対象時間: 16日13時 ICT ~ 17日19時 ICT
風向・風速西南西 6m/s
視程10km以上
全天の4割程度の雲 雲底高度 460m
全天の4割程度の雲 雲底高度 1220m
16日13時 ICT ~ 16日19時 ICT に一時的に
風向・風速西南西 9m/s 瞬間風速 15m/s
視程3000m
天気現象雷雨
全天の8割程度の雲 雲底高度 400m
全天の4割程度の積乱雲 雲底高度 460m
17日11時 ICT ~ 17日17時 ICT に一時的に
視程3000m
天気現象雷雨
全天の8割程度の雲 雲底高度 400m
全天の4割程度の積乱雲 雲底高度 460m
TAF VVTS 160500Z 1606/1712 25012KT 9999 SCT015 SCT040
TEMPO 1606/1612 25018G30KT 3000 TSRA BKN013 SCT015CB
TEMPO 1704/1710 3000 TSRA BKN013 SCT015CB